Texas Instruments EBITDA Margin 2006-2021 | TXN

Current and historical EBITDA (Earnings Before Interest, Taxes, Depreciation and Amortization) margin for Texas Instruments (TXN) over the last 10 years. The current EBITDA margin for Texas Instruments as of March 31, 2021 is .
Texas Instruments EBITDA Margin Historical Data
Date TTM Revenue TTM EBITDA EBITDA Margin
2021-03-31 $15.42B $7.57B 49.10%
2020-12-31 $14.46B $6.89B 47.62%
2020-09-30 $13.74B $6.33B 46.08%
2020-06-30 $13.69B $6.33B 46.27%
2020-03-31 $14.12B $6.63B 46.96%
2019-12-31 $14.38B $6.77B 47.09%
2019-09-30 $14.75B $7.04B 47.72%
2019-06-30 $15.24B $7.36B 48.26%
2019-03-31 $15.59B $7.53B 48.28%
2018-12-31 $15.78B $7.67B 48.57%
2018-09-30 $15.82B $7.69B 48.61%
2018-06-30 $15.67B $7.52B 48.00%
2018-03-31 $15.35B $7.28B 47.45%
2017-12-31 $14.96B $6.99B 46.70%
2017-09-30 $14.63B $6.76B 46.22%
2017-06-30 $14.18B $6.39B 45.06%
2017-03-31 $13.76B $6.06B 44.02%
2016-12-31 $13.37B $5.81B 43.46%
2016-09-30 $13.15B $5.70B 43.38%
2016-06-30 $12.90B $5.51B 42.69%
2016-03-31 $12.86B $5.43B 42.26%
2015-12-31 $13.00B $5.46B 41.96%
2015-09-30 $13.08B $5.41B 41.35%
2015-06-30 $13.15B $5.44B 41.39%
2015-03-31 $13.21B $5.43B 41.11%
2014-12-31 $13.05B $5.18B 39.69%
2014-09-30 $12.81B $4.77B 37.27%
2014-06-30 $12.55B $4.45B 35.47%
2014-03-31 $12.30B $4.39B 35.67%
2013-12-31 $12.21B $4.13B 33.83%
2013-09-30 $12.16B $3.69B 30.32%
2013-06-30 $12.30B $3.69B 30.01%
2013-03-31 $12.59B $3.39B 26.91%
2012-12-31 $12.83B $3.37B 26.31%
2012-09-30 $13.27B $3.61B 27.19%
2012-06-30 $13.34B $3.48B 26.09%
2012-03-31 $13.46B $3.69B 27.38%
2011-12-31 $13.74B $4.10B 29.85%
2011-09-30 $13.84B $4.78B 34.52%
2011-06-30 $14.12B $5.19B 36.76%
2011-03-31 $14.15B $5.39B 38.10%
2010-12-31 $13.97B $5.43B 38.86%
2010-09-30 $13.45B $5.06B 37.61%
2010-06-30 $12.59B $4.60B 36.54%
2010-03-31 $11.55B $3.84B 33.26%
2009-12-31 $10.43B $2.92B 27.97%
2009-09-30 $9.91B $2.16B 21.81%
2009-06-30 $10.42B $2.18B 20.88%
2009-03-31 $11.32B $2.69B 23.76%
2008-12-31 $12.50B $3.50B 27.97%
2008-09-30 $13.57B $4.41B 32.50%
2008-06-30 $13.84B $4.69B 33.87%
2008-03-31 $13.92B $4.68B 33.62%
2007-12-31 $13.84B $4.57B 33.01%
2007-09-30 $13.74B $4.25B 30.95%
2007-06-30 $13.84B $4.21B 30.39%
2007-03-31 $14.11B $4.39B 31.11%
2006-12-31 $14.26B $4.48B 31.41%
2006-09-30 $14.12B $4.55B 32.24%
2006-06-30 $13.69B $4.45B 32.51%
2006-03-31 $12.97B $4.17B 32.18%
2005-12-31 $12.34B $3.96B 32.10%
Sector Industry Market Cap Revenue
Computer and Technology Semiconductor - General $175.710B $14.461B
Texas Instruments Incorporated (TI) is a global semiconductor design and manufacturing company that develops analog ICs and embedded processors. By employing the world's brightest minds, TI creates innovations that shape the future of technology. TI is helping approximately 100,000 customers transform the future, today. They produce TI DLP technology and education technology products. Analog products connect the physical and the digital worlds -turning signals like sound, pressure, temperature, humidity and light into digital 1s and 0s to be used by electronic devices - and translating that data back to information we interact with in the real world. Embedded processors are the processing brains of electronics that gather inputs from analog chips and perform computational processing to operate a system. TI DLP? technology powers a range of display and advanced light control applications spanning industrial, enterprise, automotive and consumer market segments, including projectors and cinema technology.
Stock Name Country Market Cap PE Ratio
NVIDIA (NVDA) United States $449.027B 73.62
Intel (INTC) United States $234.971B 11.08
STMicroelectronics (STM) Switzerland $35.283B 28.06
SUMCO CORP ADR (SUOPY) Japan $6.897B 30.09
Thk (THKLY) Japan $3.962B 0.00
Amtech Systems (ASYS) United States $0.143B 0.00